createdAt,value
2019-06-10T00:00:11.880Z,17.49
2019-06-10T00:01:08.233Z,17.46
2019-06-10T00:02:05.865Z,17.54
2019-06-10T00:03:05.622Z,17.45
2019-06-10T00:04:07.955Z,17.43
2019-06-10T00:05:05.582Z,17.53
2019-06-10T00:06:05.402Z,17.45
2019-06-10T00:07:05.416Z,17.55
2019-06-10T00:08:05.427Z,17.43
2019-06-10T00:09:06.423Z,17.40
2019-06-10T00:10:05.770Z,17.45
2019-06-10T00:11:05.045Z,17.45
2019-06-10T00:12:04.773Z,17.46
2019-06-10T00:13:05.671Z,17.45
2019-06-10T00:14:05.704Z,17.35
2019-06-10T00:15:04.914Z,17.35
2019-06-10T00:16:05.089Z,17.42
2019-06-10T00:17:05.079Z,17.42
2019-06-10T00:18:26.629Z,17.38
2019-06-10T00:19:06.867Z,17.35
2019-06-10T00:20:05.468Z,17.45
2019-06-10T00:21:05.562Z,17.30
2019-06-10T00:22:05.304Z,17.33
2019-06-10T00:23:05.299Z,17.27
2019-06-10T00:24:05.228Z,17.32
2019-06-10T00:25:05.448Z,17.25
2019-06-10T00:26:06.108Z,17.24
2019-06-10T00:27:05.600Z,17.28
2019-06-10T00:28:05.689Z,17.28
2019-06-10T00:29:05.601Z,17.28
2019-06-10T00:30:06.100Z,17.42
2019-06-10T00:31:05.437Z,17.28
2019-06-10T00:32:06.369Z,17.43
2019-06-10T00:33:06.074Z,17.43
2019-06-10T00:34:05.074Z,17.40
2019-06-10T00:35:05.010Z,17.43
2019-06-10T00:36:07.019Z,17.38
2019-06-10T00:37:07.277Z,17.39
2019-06-10T00:38:07.236Z,17.38
2019-06-10T00:39:05.594Z,17.39
2019-06-10T00:40:05.476Z,17.46
2019-06-10T00:41:06.907Z,17.42
2019-06-10T00:42:07.598Z,17.30
2019-06-10T00:43:05.319Z,17.40
2019-06-10T00:44:05.257Z,17.35
2019-06-10T00:45:05.660Z,17.39
2019-06-10T00:46:05.803Z,17.27
2019-06-10T00:47:06.685Z,17.28
2019-06-10T00:48:12.430Z,17.39
2019-06-10T00:49:07.533Z,17.25
2019-06-10T00:50:08.147Z,17.25
2019-06-10T00:51:06.104Z,17.47
2019-06-10T00:52:04.634Z,17.40
2019-06-10T00:53:04.532Z,17.39
2019-06-10T00:54:05.304Z,17.40
2019-06-10T00:55:04.850Z,17.42
2019-06-10T00:56:05.629Z,17.47
2019-06-10T00:57:04.366Z,17.39
2019-06-10T00:58:04.130Z,17.43
2019-06-10T00:59:04.118Z,17.32
2019-06-10T01:00:14.535Z,17.36
2019-06-10T01:01:05.732Z,17.46
2019-06-10T01:02:05.039Z,17.33
2019-06-10T01:03:03.975Z,17.24
2019-06-10T01:04:05.077Z,17.24
2019-06-10T01:05:03.566Z,17.22
2019-06-10T01:06:04.715Z,17.25
2019-06-10T01:07:04.356Z,17.18
2019-06-10T01:08:04.595Z,17.20
2019-06-10T01:09:04.523Z,17.27
2019-06-10T01:10:04.636Z,17.20
2019-06-10T01:11:05.693Z,17.18
2019-06-10T01:12:04.845Z,17.15
2019-06-10T01:13:03.483Z,17.12
2019-06-10T01:14:03.460Z,17.10
2019-06-10T01:15:03.469Z,17.09
2019-06-10T01:16:03.525Z,17.15
2019-06-10T01:17:03.621Z,17.10
2019-06-10T01:18:03.519Z,17.14
2019-06-10T01:19:03.803Z,17.12
2019-06-10T01:20:03.741Z,17.14
2019-06-10T01:21:03.852Z,17.15
2019-06-10T01:22:03.884Z,17.14
2019-06-10T01:23:03.367Z,17.18
2019-06-10T01:24:03.355Z,17.20
2019-06-10T01:25:03.356Z,17.17
2019-06-10T01:26:03.333Z,17.10
2019-06-10T01:27:03.328Z,17.15
2019-06-10T01:28:03.324Z,17.20
2019-06-10T01:29:03.303Z,17.17
2019-06-10T01:30:10.217Z,17.17
2019-06-10T01:31:04.290Z,17.24
2019-06-10T01:32:03.270Z,17.20
2019-06-10T01:33:03.269Z,17.24
2019-06-10T01:34:03.252Z,17.20
2019-06-10T01:35:03.264Z,17.27
2019-06-10T01:36:03.232Z,17.25
2019-06-10T01:37:03.223Z,17.33
2019-06-10T01:38:03.206Z,17.21
2019-06-10T01:39:03.197Z,17.20
2019-06-10T01:40:03.186Z,17.22
2019-06-10T01:41:03.187Z,17.14
2019-06-10T01:42:03.163Z,17.12
2019-06-10T01:43:03.157Z,17.14
2019-06-10T01:44:03.143Z,17.15
2019-06-10T01:45:03.134Z,17.15
2019-06-10T01:46:03.131Z,17.07
2019-06-10T01:47:03.112Z,17.10
2019-06-10T01:48:03.103Z,17.15
2019-06-10T01:49:03.091Z,17.09
2019-06-10T01:50:03.087Z,17.12
2019-06-10T01:51:03.101Z,17.09
2019-06-10T01:52:03.058Z,17.06
2019-06-10T01:53:03.052Z,17.02
2019-06-10T01:54:03.045Z,17.03
2019-06-10T01:55:03.032Z,16.96
2019-06-10T01:56:03.028Z,16.95
2019-06-10T01:57:03.006Z,16.98
2019-06-10T01:58:02.994Z,16.92
2019-06-10T01:59:02.984Z,17.02
2019-06-10T02:00:09.240Z,16.99
2019-06-10T02:01:03.975Z,16.90
2019-06-10T02:02:02.958Z,17.00
2019-06-10T02:03:03.728Z,16.98
2019-06-10T02:04:02.932Z,16.96
2019-06-10T02:05:02.933Z,16.95
2019-06-10T02:06:02.931Z,16.92
2019-06-10T02:07:02.908Z,16.82
2019-06-10T02:08:02.890Z,16.96
2019-06-10T02:09:02.887Z,16.98
2019-06-10T02:10:02.872Z,16.92
2019-06-10T02:11:02.875Z,16.98
2019-06-10T02:12:02.864Z,16.95
2019-06-10T02:13:02.838Z,16.92
2019-06-10T02:14:02.831Z,16.96
2019-06-10T02:15:02.817Z,16.98
2019-06-10T02:16:02.837Z,16.96
2019-06-10T02:17:02.793Z,16.95
2019-06-10T02:18:02.788Z,16.96
2019-06-10T02:19:04.165Z,16.98
2019-06-10T02:20:02.764Z,16.98
2019-06-10T02:21:02.791Z,16.92
2019-06-10T02:22:02.740Z,16.95
2019-06-10T02:23:02.733Z,16.92
2019-06-10T02:24:02.725Z,16.88
2019-06-10T02:25:02.722Z,16.84
2019-06-10T02:26:02.716Z,16.98
2019-06-10T02:27:02.705Z,16.99
2019-06-10T02:28:02.679Z,16.88
2019-06-10T02:29:02.668Z,16.84
2019-06-10T02:30:13.540Z,16.98
2019-06-10T02:31:04.040Z,16.87
2019-06-10T02:32:04.893Z,16.82
2019-06-10T02:33:02.751Z,16.85
2019-06-10T02:34:02.871Z,16.96
2019-06-10T02:35:12.127Z,16.88
2019-06-10T02:36:04.646Z,16.91
2019-06-10T02:37:04.650Z,16.85
2019-06-10T02:38:03.487Z,16.88
2019-06-10T02:39:04.536Z,16.95
2019-06-10T02:40:04.533Z,17.00
2019-06-10T02:41:04.372Z,16.90
2019-06-10T02:42:04.513Z,16.96
2019-06-10T02:43:03.550Z,16.82
2019-06-10T02:44:04.363Z,16.91
2019-06-10T02:45:03.802Z,16.72
2019-06-10T02:46:04.212Z,16.72
2019-06-10T02:47:03.343Z,16.70
2019-06-10T02:48:04.175Z,16.66
2019-06-10T02:49:20.372Z,16.72
2019-06-10T02:50:08.302Z,16.72
2019-06-10T02:51:03.972Z,16.85
2019-06-10T02:52:03.506Z,16.85
2019-06-10T02:53:04.039Z,16.78
2019-06-10T02:54:04.751Z,16.85
2019-06-10T02:55:04.250Z,16.78
2019-06-10T02:56:04.181Z,16.78
2019-06-10T02:57:04.336Z,16.88
2019-06-10T02:58:03.935Z,16.72
2019-06-10T02:59:03.402Z,16.75
2019-06-10T03:00:06.666Z,16.77
2019-06-10T03:01:04.221Z,16.70
2019-06-10T03:02:03.022Z,16.77
2019-06-10T03:03:03.905Z,16.82
2019-06-10T03:04:04.516Z,16.81
2019-06-10T03:05:04.514Z,16.82
2019-06-10T03:06:07.877Z,16.75
2019-06-10T03:07:03.478Z,16.78
2019-06-10T03:08:03.860Z,16.72
2019-06-10T03:09:03.770Z,16.72
2019-06-10T03:10:04.777Z,16.69
2019-06-10T03:11:03.794Z,16.73
2019-06-10T03:12:04.669Z,16.69
2019-06-10T03:13:02.527Z,16.60
2019-06-10T03:14:02.689Z,16.66
2019-06-10T03:15:02.292Z,16.80
2019-06-10T03:16:02.793Z,16.66
2019-06-10T03:17:03.155Z,16.60
2019-06-10T03:18:02.401Z,16.66
2019-06-10T03:19:02.958Z,16.65
2019-06-10T03:20:02.428Z,16.72
2019-06-10T03:21:02.758Z,16.72
2019-06-10T03:22:02.735Z,16.73
2019-06-10T03:23:03.029Z,16.75
2019-06-10T03:24:02.613Z,16.72
2019-06-10T03:25:02.936Z,16.75
2019-06-10T03:26:04.082Z,16.72
2019-06-10T03:27:02.683Z,16.77
2019-06-10T03:28:03.075Z,16.80
2019-06-10T03:29:02.734Z,16.80
2019-06-10T03:30:04.761Z,16.67
2019-06-10T03:31:05.703Z,16.70
2019-06-10T03:32:05.169Z,16.75
2019-06-10T03:33:05.056Z,16.80
2019-06-10T03:34:05.148Z,16.69
2019-06-10T03:35:05.466Z,16.73
2019-06-10T03:36:03.344Z,16.63
2019-06-10T03:37:02.445Z,16.60
2019-06-10T03:38:03.061Z,16.72
2019-06-10T03:39:02.598Z,16.62
2019-06-10T03:40:02.570Z,16.69
2019-06-10T03:41:03.345Z,16.69
2019-06-10T03:42:02.317Z,16.65
2019-06-10T03:43:02.640Z,16.69
2019-06-10T03:44:02.553Z,16.67
2019-06-10T03:45:03.355Z,16.62
2019-06-10T03:46:03.021Z,16.65
2019-06-10T03:47:02.872Z,16.51
2019-06-10T03:48:03.732Z,16.57
2019-06-10T03:49:03.117Z,16.50
2019-06-10T03:50:03.188Z,16.60
2019-06-10T03:51:03.265Z,16.57
2019-06-10T03:52:02.419Z,16.57
2019-06-10T03:53:04.294Z,16.42
2019-06-10T03:54:02.469Z,16.44
2019-06-10T03:55:03.142Z,16.47
2019-06-10T03:56:02.314Z,16.45
2019-06-10T03:57:02.845Z,16.42
2019-06-10T03:58:02.299Z,16.52
2019-06-10T03:59:02.850Z,16.41
2019-06-10T04:00:06.444Z,16.42
2019-06-10T04:01:03.322Z,16.59
2019-06-10T04:02:02.333Z,16.48
2019-06-10T04:03:02.771Z,16.52
2019-06-10T04:04:02.346Z,16.44
2019-06-10T04:05:02.707Z,16.47
2019-06-10T04:06:02.356Z,16.50
2019-06-10T04:07:03.780Z,16.47
2019-06-10T04:08:02.121Z,16.51
2019-06-10T04:09:02.788Z,16.54
2019-06-10T04:10:02.353Z,16.48
2019-06-10T04:11:02.960Z,16.45
2019-06-10T04:12:02.119Z,16.47
2019-06-10T04:13:02.603Z,16.51
2019-06-10T04:14:02.334Z,16.45
2019-06-10T04:15:03.076Z,16.47
2019-06-10T04:16:02.335Z,16.45
2019-06-10T04:17:02.704Z,16.44
2019-06-10T04:18:03.912Z,16.45
2019-06-10T04:19:02.559Z,16.47
2019-06-10T04:20:09.435Z,16.45
2019-06-10T04:21:02.604Z,16.44
2019-06-10T04:22:02.568Z,16.42
2019-06-10T04:23:02.778Z,16.30
2019-06-10T04:24:02.271Z,16.42
2019-06-10T04:25:03.072Z,16.51
2019-06-10T04:26:02.393Z,16.44
2019-06-10T04:27:02.791Z,16.45
2019-06-10T04:28:03.190Z,16.48
2019-06-10T04:29:02.458Z,16.47
2019-06-10T04:30:03.330Z,16.52
2019-06-10T04:31:02.654Z,16.57
2019-06-10T04:32:03.018Z,16.51
2019-06-10T04:33:02.329Z,16.50
2019-06-10T04:34:03.141Z,16.44
2019-06-10T04:35:02.295Z,16.50
2019-06-10T04:36:02.874Z,16.50
2019-06-10T04:37:03.096Z,16.47
2019-06-10T04:38:02.499Z,16.62
2019-06-10T04:39:03.222Z,16.55
2019-06-10T04:40:02.875Z,16.54
2019-06-10T04:41:03.297Z,16.57
2019-06-10T04:42:02.435Z,16.57
2019-06-10T04:43:03.014Z,16.66
2019-06-10T04:44:02.647Z,16.57
2019-06-10T04:45:03.167Z,16.67
2019-06-10T04:46:02.338Z,16.59
2019-06-10T04:47:02.673Z,16.66
2019-06-10T04:48:03.104Z,16.70
2019-06-10T04:49:02.829Z,16.72
2019-06-10T04:50:03.160Z,16.80
2019-06-10T04:51:02.782Z,16.82
2019-06-10T04:52:03.063Z,16.80
2019-06-10T04:53:02.275Z,16.81
2019-06-10T04:54:02.958Z,16.81
2019-06-10T04:55:02.530Z,16.87
2019-06-10T04:56:03.050Z,16.91
2019-06-10T04:57:02.272Z,16.77
2019-06-10T04:58:02.539Z,16.91
2019-06-10T04:59:03.143Z,16.78
2019-06-10T05:00:04.080Z,16.77
2019-06-10T05:01:03.160Z,16.80
2019-06-10T05:02:02.469Z,16.90
2019-06-10T05:03:02.872Z,16.78
2019-06-10T05:04:03.193Z,16.78
2019-06-10T05:05:02.940Z,16.88
2019-06-10T05:06:03.020Z,16.81
2019-06-10T05:07:02.122Z,16.95
2019-06-10T05:08:02.657Z,16.82
2019-06-10T05:09:00.980Z,16.85
2019-06-10T05:10:03.242Z,16.91
2019-06-10T05:11:03.341Z,17.00
2019-06-10T05:12:02.844Z,16.98
2019-06-10T05:13:02.994Z,16.99
2019-06-10T05:14:02.729Z,16.95
2019-06-10T05:15:03.284Z,17.00
2019-06-10T05:16:03.314Z,16.95
2019-06-10T05:17:02.222Z,16.96
2019-06-10T05:18:03.369Z,17.03
2019-06-10T05:19:03.614Z,16.92
2019-06-10T05:20:02.521Z,17.09
2019-06-10T05:21:02.745Z,17.07
2019-06-10T05:22:02.970Z,17.06
2019-06-10T05:23:02.284Z,17.07
2019-06-10T05:24:02.944Z,17.12
2019-06-10T05:25:02.477Z,17.12
2019-06-10T05:26:02.781Z,17.06
2019-06-10T05:27:02.084Z,17.07
2019-06-10T05:28:02.906Z,17.09
2019-06-10T05:29:02.889Z,17.07
2019-06-10T05:30:02.367Z,17.12
2019-06-10T05:31:02.789Z,17.15
2019-06-10T05:32:02.539Z,17.10
2019-06-10T05:33:02.875Z,17.14
2019-06-10T05:34:02.390Z,17.15
2019-06-10T05:35:03.309Z,17.20
2019-06-10T05:36:02.527Z,17.18
2019-06-10T05:37:02.718Z,17.21
2019-06-10T05:38:02.468Z,17.21
2019-06-10T05:39:02.688Z,17.20
2019-06-10T05:40:02.265Z,17.28
2019-06-10T05:41:02.900Z,17.20
2019-06-10T05:42:03.154Z,17.21
2019-06-10T05:43:02.426Z,17.18
2019-06-10T05:44:02.541Z,17.22
2019-06-10T05:45:02.975Z,17.22
2019-06-10T05:46:02.905Z,17.17
2019-06-10T05:47:03.418Z,17.20
2019-06-10T05:48:02.787Z,17.24
2019-06-10T05:49:02.924Z,17.20
2019-06-10T05:50:03.189Z,17.22
2019-06-10T05:51:06.171Z,17.20
2019-06-10T05:52:02.025Z,17.30
2019-06-10T05:53:02.419Z,17.33
2019-06-10T05:54:02.196Z,17.24
2019-06-10T05:55:02.725Z,17.27
2019-06-10T05:56:02.199Z,17.25
2019-06-10T05:57:02.548Z,17.28
2019-06-10T05:58:02.598Z,17.46
2019-06-10T05:59:03.812Z,17.42
2019-06-10T06:00:04.153Z,17.39
2019-06-10T06:01:02.672Z,17.42
2019-06-10T06:02:02.273Z,17.35
2019-06-10T06:03:02.685Z,17.42
2019-06-10T06:04:03.064Z,17.43
2019-06-10T06:05:02.567Z,17.49
2019-06-10T06:06:02.907Z,17.42
2019-06-10T06:07:02.356Z,17.49
2019-06-10T06:08:05.678Z,17.43
2019-06-10T06:09:02.248Z,17.45
2019-06-10T06:10:02.436Z,17.39
2019-06-10T06:11:00.828Z,17.46
2019-06-10T06:12:02.436Z,17.47
2019-06-10T06:13:00.293Z,17.45
2019-06-10T06:14:02.530Z,17.43
2019-06-10T06:15:02.380Z,17.43
2019-06-10T06:16:03.025Z,17.46
2019-06-10T06:17:02.201Z,17.43
2019-06-10T06:18:07.303Z,17.47
2019-06-10T06:19:03.243Z,17.43
2019-06-10T06:20:02.573Z,17.46
2019-06-10T06:21:19.088Z,17.42
2019-06-10T06:22:02.255Z,17.30
2019-06-10T06:23:02.628Z,17.30
2019-06-10T06:24:03.955Z,17.40
2019-06-10T06:25:03.350Z,17.43
2019-06-10T06:26:00.164Z,17.40
2019-06-10T06:27:02.378Z,17.38
2019-06-10T06:28:00.138Z,17.38
2019-06-10T06:29:02.252Z,17.45
2019-06-10T06:30:02.816Z,17.45
2019-06-10T06:31:03.352Z,17.47
2019-06-10T06:32:02.551Z,17.45
2019-06-10T06:33:02.746Z,17.47
2019-06-10T06:34:02.847Z,17.45
2019-06-10T06:35:02.114Z,17.45
2019-06-10T06:36:00.045Z,17.53
2019-06-10T06:37:02.103Z,17.58
2019-06-10T06:38:02.465Z,17.60
2019-06-10T06:39:02.184Z,17.73
2019-06-10T06:40:02.626Z,17.71
2019-06-10T06:40:59.992Z,17.62
2019-06-10T06:42:01.841Z,17.63
2019-06-10T06:42:59.986Z,17.66
2019-06-10T06:44:02.148Z,17.73
2019-06-10T06:44:59.953Z,17.80
2019-06-10T06:46:02.236Z,17.87
2019-06-10T06:47:02.542Z,17.95
2019-06-10T06:47:59.921Z,17.92
2019-06-10T06:49:01.976Z,17.95
2019-06-10T06:50:02.543Z,18.10
2019-06-10T06:51:04.747Z,18.14
2019-06-10T06:52:02.896Z,18.19
2019-06-10T06:53:25.650Z,18.25
2019-06-10T06:54:03.089Z,18.25
2019-06-10T06:55:02.325Z,18.26
2019-06-10T06:55:59.831Z,18.32
2019-06-10T06:56:59.821Z,18.29
2019-06-10T06:57:59.814Z,18.28
2019-06-10T06:58:59.799Z,18.31
2019-06-10T06:59:59.799Z,18.25
2019-06-10T07:01:05.970Z,18.25
2019-06-10T07:02:02.749Z,18.16
2019-06-10T07:02:59.757Z,18.16
2019-06-10T07:04:02.452Z,18.14
2019-06-10T07:04:59.737Z,18.17
2019-06-10T07:06:02.456Z,18.10
2019-06-10T07:06:59.713Z,18.05
2019-06-10T07:08:01.804Z,18.01
2019-06-10T07:09:04.394Z,18.01
2019-06-10T07:10:03.198Z,18.04
2019-06-10T07:10:59.671Z,18.07
2019-06-10T07:12:02.372Z,18.04
2019-06-10T07:12:59.659Z,18.01
2019-06-10T07:13:59.638Z,18.11
2019-06-10T07:14:59.631Z,18.01
2019-06-10T07:16:02.728Z,17.98
2019-06-10T07:16:59.606Z,18.01
2019-06-10T07:18:01.813Z,18.09
2019-06-10T07:18:59.586Z,18.09
2019-06-10T07:19:59.577Z,18.14
2019-06-10T07:20:59.567Z,18.10
2019-06-10T07:22:09.505Z,18.26
2019-06-10T07:23:02.559Z,18.20
2019-06-10T07:23:59.533Z,18.28
2019-06-10T07:25:03.435Z,18.29
2019-06-10T07:26:02.314Z,18.41
2019-06-10T07:26:59.501Z,18.51
2019-06-10T07:28:01.915Z,18.62
2019-06-10T07:28:59.480Z,18.64
2019-06-10T07:29:59.473Z,18.65
2019-06-10T07:30:59.459Z,18.83
2019-06-10T07:31:59.447Z,18.91
2019-06-10T07:32:59.440Z,19.02
2019-06-10T07:33:59.439Z,19.05
2019-06-10T07:34:59.424Z,19.21
2019-06-10T07:35:59.406Z,19.27
2019-06-10T07:36:59.397Z,19.21
2019-06-10T07:37:59.385Z,19.31
2019-06-10T07:38:59.375Z,19.40
2019-06-10T07:39:59.365Z,19.58
2019-06-10T07:40:59.351Z,19.68
2019-06-10T07:41:59.342Z,19.79
2019-06-10T07:42:59.330Z,19.72
2019-06-10T07:43:59.328Z,19.76
2019-06-10T07:44:59.318Z,19.79
2019-06-10T07:45:59.306Z,19.71
2019-06-10T07:46:59.287Z,19.78
2019-06-10T07:47:59.280Z,19.75
2019-06-10T07:48:59.270Z,19.68
2019-06-10T07:49:59.260Z,19.78
2019-06-10T07:50:59.245Z,19.72
2019-06-10T07:52:12.039Z,19.75
2019-06-10T07:53:02.159Z,19.80
2019-06-10T07:53:59.212Z,19.70
2019-06-10T07:54:59.205Z,19.82
2019-06-10T07:55:59.204Z,19.83
2019-06-10T07:56:59.181Z,19.86
2019-06-10T07:57:59.171Z,19.92
2019-06-10T07:58:59.163Z,19.79
2019-06-10T07:59:59.160Z,19.89
2019-06-10T08:00:59.145Z,20.01
2019-06-10T08:01:59.128Z,19.92
2019-06-10T08:02:59.118Z,20.00
2019-06-10T08:03:59.106Z,20.04
2019-06-10T08:04:59.115Z,20.15
2019-06-10T08:05:59.086Z,20.13
2019-06-10T08:06:59.081Z,20.13
2019-06-10T08:07:59.063Z,20.20
2019-06-10T08:08:59.075Z,20.40
2019-06-10T08:09:59.060Z,20.35
2019-06-10T08:10:59.048Z,20.41
2019-06-10T08:12:03.397Z,20.44
2019-06-10T08:13:00.009Z,20.41
2019-06-10T08:13:59.000Z,20.48
2019-06-10T08:14:58.999Z,20.48
2019-06-10T08:15:58.982Z,20.54
2019-06-10T08:16:58.969Z,20.58
2019-06-10T08:17:58.957Z,20.64
2019-06-10T08:19:21.893Z,20.76
2019-06-10T08:20:02.317Z,20.79
2019-06-10T08:20:58.925Z,20.78
2019-06-10T08:21:58.919Z,20.87
2019-06-10T08:22:59.006Z,20.81
2019-06-10T08:23:58.893Z,20.83
2019-06-10T08:24:58.912Z,21.01
2019-06-10T08:25:58.874Z,21.06
2019-06-10T08:26:58.861Z,21.16
2019-06-10T08:27:58.852Z,21.31
2019-06-10T08:28:58.840Z,21.43
2019-06-10T08:30:14.095Z,21.38
2019-06-10T08:30:59.818Z,21.49
2019-06-10T08:31:58.812Z,21.46
2019-06-10T08:32:58.798Z,21.56
2019-06-10T08:33:58.791Z,21.53
2019-06-10T08:34:58.790Z,21.55
2019-06-10T08:36:00.558Z,21.55
2019-06-10T08:36:58.816Z,21.58
2019-06-10T08:37:58.747Z,21.51
2019-06-10T08:38:58.738Z,21.53
2019-06-10T08:39:58.750Z,21.48
2019-06-10T08:40:58.721Z,21.52
2019-06-10T08:41:58.704Z,21.49
2019-06-10T08:42:58.693Z,21.55
2019-06-10T08:43:58.684Z,21.51
2019-06-10T08:45:00.021Z,21.55
2019-06-10T08:45:58.673Z,21.48
2019-06-10T08:46:58.652Z,21.45
2019-06-10T08:47:58.642Z,21.51
2019-06-10T08:48:58.632Z,21.52
2019-06-10T08:49:58.621Z,21.64
2019-06-10T08:50:58.621Z,21.56
2019-06-10T08:51:58.601Z,21.59
2019-06-10T08:53:12.809Z,21.61
2019-06-10T08:54:02.140Z,21.43
2019-06-10T08:54:58.569Z,21.61
2019-06-10T08:55:58.570Z,21.55
2019-06-10T08:56:58.548Z,21.42
2019-06-10T08:57:58.539Z,21.42
2019-06-10T08:58:58.528Z,21.48
2019-06-10T08:59:58.517Z,21.49
2019-06-10T09:00:58.519Z,21.46
2019-06-10T09:01:58.515Z,21.46
2019-06-10T09:02:58.485Z,21.40
2019-06-10T09:03:58.476Z,21.45
2019-06-10T09:04:58.465Z,21.49
2019-06-10T09:05:58.658Z,21.49
2019-06-10T09:06:58.445Z,21.51
2019-06-10T09:07:58.433Z,21.51
2019-06-10T09:08:58.425Z,21.36
2019-06-10T09:09:58.414Z,21.42
2019-06-10T09:10:58.419Z,21.40
2019-06-10T09:11:58.399Z,21.42
2019-06-10T09:12:58.381Z,21.34
2019-06-10T09:13:58.373Z,21.36
2019-06-10T09:14:58.363Z,21.30
2019-06-10T09:16:10.905Z,21.30
2019-06-10T09:16:59.339Z,21.26
2019-06-10T09:17:58.333Z,21.15
2019-06-10T09:18:58.320Z,21.19
2019-06-10T09:19:58.310Z,21.22
2019-06-10T09:20:58.310Z,21.21
2019-06-10T09:21:58.288Z,21.26
2019-06-10T09:23:16.915Z,21.34
2019-06-10T09:24:03.045Z,21.38
2019-06-10T09:24:58.257Z,21.43
2019-06-10T09:25:58.260Z,21.59
2019-06-10T09:26:58.244Z,21.64
2019-06-10T09:27:58.226Z,21.67
2019-06-10T09:28:58.219Z,21.75
2019-06-10T09:29:58.212Z,21.82
2019-06-10T09:30:59.664Z,22.01
2019-06-10T09:31:58.185Z,22.06
2019-06-10T09:33:00.811Z,22.09
2019-06-10T09:33:59.162Z,22.24
2019-06-10T09:34:58.158Z,22.15
2019-06-10T09:35:58.164Z,22.12
2019-06-10T09:36:58.134Z,22.15
2019-06-10T09:37:58.122Z,22.15
2019-06-10T09:38:58.115Z,22.21
2019-06-10T09:39:59.616Z,22.26
2019-06-10T09:41:02.146Z,22.44
2019-06-10T09:42:02.866Z,22.44
2019-06-10T09:42:59.073Z,22.72
2019-06-10T09:43:58.058Z,22.66
2019-06-10T09:44:58.048Z,22.86
2019-06-10T09:45:58.048Z,23.01
2019-06-10T09:47:00.236Z,23.09
2019-06-10T09:48:00.238Z,23.14
2019-06-10T09:48:59.001Z,23.22
2019-06-10T09:49:57.994Z,23.34
2019-06-10T09:50:59.186Z,23.34
2019-06-10T09:51:58.027Z,23.45
2019-06-10T09:52:57.963Z,23.49
2019-06-10T09:54:03.126Z,23.47
2019-06-10T09:54:58.940Z,23.45
2019-06-10T09:55:57.957Z,23.54
2019-06-10T09:56:57.919Z,23.56
2019-06-10T09:57:59.925Z,23.64
2019-06-10T09:58:57.900Z,23.74
2019-06-10T09:59:57.891Z,23.82
2019-06-10T10:00:58.313Z,23.84
2019-06-10T10:02:02.523Z,24.06
2019-06-10T10:02:58.857Z,24.11
2019-06-10T10:04:00.255Z,24.11
2019-06-10T10:04:58.684Z,24.23
2019-06-10T10:06:10.010Z,24.31
2019-06-10T10:06:58.822Z,24.27
2019-06-10T10:07:57.804Z,24.41
2019-06-10T10:08:58.487Z,24.53
2019-06-10T10:09:57.789Z,24.51
2019-06-10T10:10:58.887Z,24.52
2019-06-10T10:11:57.761Z,24.63
2019-06-10T10:12:57.750Z,24.66
2019-06-10T10:13:57.739Z,24.80
2019-06-10T10:14:57.729Z,24.82
2019-06-10T10:15:57.720Z,24.90
2019-06-10T10:17:00.165Z,24.93
2019-06-10T10:17:57.697Z,24.92
2019-06-10T10:19:00.609Z,24.75
2019-06-10T10:19:57.675Z,24.67
2019-06-10T10:21:00.378Z,24.71
2019-06-10T10:21:58.837Z,24.89
2019-06-10T10:22:57.645Z,24.90
2019-06-10T10:24:06.778Z,24.98
2019-06-10T10:24:58.625Z,24.93
2019-06-10T10:25:57.612Z,24.89
2019-06-10T10:27:01.042Z,24.80
2019-06-10T10:27:57.816Z,24.74
2019-06-10T10:28:57.587Z,24.80
2019-06-10T10:29:57.589Z,24.79
2019-06-10T10:30:58.249Z,24.82
2019-06-10T10:31:57.559Z,24.79
2019-06-10T10:32:57.540Z,24.92
2019-06-10T10:33:57.528Z,25.09
2019-06-10T10:34:57.518Z,25.27
2019-06-10T10:35:57.512Z,25.54
2019-06-10T10:36:57.523Z,25.61
2019-06-10T10:37:57.486Z,25.79
2019-06-10T10:38:57.477Z,25.89
2019-06-10T10:39:57.467Z,25.98
2019-06-10T10:40:59.152Z,26.03
2019-06-10T10:41:57.469Z,25.97
2019-06-10T10:43:16.364Z,26.01
2019-06-10T10:43:58.661Z,25.90
2019-06-10T10:44:59.290Z,25.86
2019-06-10T10:46:00.200Z,25.76
2019-06-10T10:46:57.403Z,25.76
2019-06-10T10:47:57.789Z,25.78
2019-06-10T10:48:57.371Z,25.82
2019-06-10T10:49:57.362Z,25.76
2019-06-10T10:50:57.354Z,25.72
2019-06-10T10:51:57.352Z,25.69
2019-06-10T10:52:57.331Z,25.72
2019-06-10T10:54:18.817Z,25.75
2019-06-10T10:54:58.308Z,25.72
2019-06-10T10:55:57.300Z,25.74
2019-06-10T10:56:59.221Z,25.79
2019-06-10T10:57:57.648Z,25.91
2019-06-10T10:58:58.539Z,25.93
2019-06-10T10:59:57.257Z,25.97
2019-06-10T11:00:57.966Z,26.08
2019-06-10T11:01:57.246Z,26.06
2019-06-10T11:02:57.229Z,26.08
2019-06-10T11:03:59.172Z,26.23
2019-06-10T11:04:57.350Z,26.13
2019-06-10T11:06:00.774Z,26.19
2019-06-10T11:07:00.920Z,26.19
2019-06-10T11:07:57.173Z,26.28
2019-06-10T11:08:57.793Z,26.32
2019-06-10T11:09:57.162Z,26.31
2019-06-10T11:11:00.900Z,26.28
2019-06-10T11:11:58.145Z,26.27
2019-06-10T11:12:57.318Z,26.35
2019-06-10T11:13:58.521Z,26.31
2019-06-10T11:15:01.802Z,26.29
2019-06-10T11:15:58.501Z,26.20
2019-06-10T11:16:58.904Z,26.24
2019-06-10T11:17:58.255Z,26.09
2019-06-10T11:18:58.031Z,26.13
2019-06-10T11:19:57.763Z,26.04
2019-06-10T11:21:00.390Z,25.93
2019-06-10T11:21:58.041Z,25.83
2019-06-10T11:22:57.987Z,25.69
2019-06-10T11:24:00.945Z,25.61
2019-06-10T11:24:58.004Z,25.39
2019-06-10T11:25:57.521Z,25.36
2019-06-10T11:26:58.302Z,25.36
2019-06-10T11:27:57.292Z,25.24
2019-06-10T11:28:57.985Z,25.17
2019-06-10T11:29:59.032Z,25.11
2019-06-10T11:30:58.615Z,25.08
2019-06-10T11:31:58.658Z,25.04
2019-06-10T11:32:58.319Z,25.01
2019-06-10T11:33:58.970Z,24.94
2019-06-10T11:34:57.139Z,24.94
2019-06-10T11:35:58.110Z,24.97
2019-06-10T11:36:58.187Z,24.80
2019-06-10T11:37:58.140Z,24.83
2019-06-10T11:38:59.121Z,24.74
2019-06-10T11:39:56.841Z,24.60
2019-06-10T11:40:59.951Z,24.61
2019-06-10T11:41:57.712Z,24.64
2019-06-10T11:42:59.685Z,24.59
2019-06-10T11:43:59.239Z,24.61
2019-06-10T11:44:59.477Z,24.59
2019-06-10T11:46:03.108Z,24.61
2019-06-10T11:46:59.693Z,24.66
2019-06-10T11:47:58.206Z,24.63
2019-06-10T11:48:58.910Z,24.70
2019-06-10T11:49:58.010Z,24.61
2019-06-10T11:51:00.144Z,24.67
2019-06-10T11:51:59.501Z,24.61
2019-06-10T11:53:00.497Z,24.67
2019-06-10T11:53:57.684Z,24.63
2019-06-10T11:55:10.653Z,24.61
2019-06-10T11:55:58.000Z,24.70
2019-06-10T11:56:58.119Z,24.60
2019-06-10T11:57:58.179Z,24.55
2019-06-10T11:58:58.756Z,24.45
2019-06-10T11:59:58.344Z,24.42
2019-06-10T12:00:58.781Z,24.49
2019-06-10T12:01:59.854Z,24.46
2019-06-10T12:02:58.960Z,24.41
2019-06-10T12:03:58.830Z,24.44
2019-06-10T12:04:58.939Z,24.39
2019-06-10T12:05:59.316Z,24.21
2019-06-10T12:06:57.114Z,24.29
2019-06-10T12:07:59.751Z,24.29
2019-06-10T12:09:00.486Z,24.16
2019-06-10T12:10:00.516Z,24.18
2019-06-10T12:11:00.094Z,24.08
2019-06-10T12:12:01.426Z,24.09
2019-06-10T12:12:58.924Z,24.18
2019-06-10T12:14:02.315Z,24.12
2019-06-10T12:14:59.315Z,24.06
2019-06-10T12:17:27.540Z,24.11
2019-06-10T12:18:03.819Z,24.05
2019-06-10T12:18:58.949Z,24.11
2019-06-10T12:19:59.570Z,24.14
2019-06-10T12:21:02.868Z,24.08
2019-06-10T12:22:01.402Z,23.99
2019-06-10T12:22:59.603Z,24.04
2019-06-10T12:23:59.027Z,24.05
2019-06-10T12:25:21.095Z,24.04
2019-06-10T12:25:59.311Z,24.08
2019-06-10T12:26:58.350Z,23.97
2019-06-10T12:27:59.697Z,24.06
2019-06-10T12:28:59.361Z,24.14
2019-06-10T12:29:58.160Z,24.30
2019-06-10T12:31:01.152Z,24.52
2019-06-10T12:32:01.234Z,24.80
2019-06-10T12:32:59.479Z,25.04
2019-06-10T12:33:57.634Z,25.22
2019-06-10T12:34:58.029Z,25.19
2019-06-10T12:35:59.546Z,25.16
2019-06-10T12:37:02.089Z,25.16
2019-06-10T12:37:59.756Z,25.22
2019-06-10T12:39:00.154Z,25.29
2019-06-10T12:39:59.394Z,25.36
2019-06-10T12:40:58.963Z,25.36
2019-06-10T12:41:58.015Z,25.30
2019-06-10T12:42:59.244Z,25.34
2019-06-10T12:43:56.648Z,25.22
2019-06-10T12:44:57.649Z,25.24
2019-06-10T12:45:57.566Z,25.17
2019-06-10T12:46:57.993Z,25.16
2019-06-10T12:47:58.342Z,25.14
2019-06-10T12:48:59.474Z,25.09
2019-06-10T12:49:57.563Z,25.09
2019-06-10T12:50:58.918Z,24.93
2019-06-10T12:51:57.389Z,24.84
2019-06-10T12:52:56.511Z,24.71